UUWW/VKO METAR and TAF weather

Enter ICAO airport designator
Station Type Date Time Source
UUWW METAR 2019/05/25 15:00 UTC NOAA

UUWW 251500Z 16004MPS 9999 BKN030 18/10 Q1007 R06/000070 NOSIG


Station Type Date Time Source
UUWW Decoded METAR 2019/05/25 15:00 UTC NOAA

Moscow / Vnukovo , Russia (UUWW) 55-39N 037-16E
May 25, 2019 - 11:00 AM EDT / 2019.05.25 1500 UTC
Wind: from the SSE (160 degrees) at 9 MPH (8 KT):0
Visibility: greater than 7 mile(s):0
Sky conditions: mostly cloudy
Temperature: 64 F (18 C)
Dew Point: 50 F (10 C)
Relative Humidity: 59%
Pressure (altimeter): 29.74 in. Hg (1007 hPa)
ob: UUWW 251500Z 16004MPS 9999 BKN030 18/10 Q1007 R06/000070 NOSIG
cycle: 15

Station Type Date Time Source
UUWW TAF 2019/05/25 15:21 UTC NOAA

TAF UUWW 251358Z 2515/2615 15005G10MPS 9999 BKN020 TX24/2612Z TN13/2602Z
TEMPO 2516/2604 15010G15MPS 1200 TSRA BKN015CB
TEMPO 2604/2609 -SHRA FEW007 SCT015CB
BECMG 2604/2605 25003MPS
TEMPO 2609/2615 27008MPS 3100 -SHRA SCT015CB PROB40
TEMPO 2609/2615 -TSRA SCT015CB

Example: see airport list